Time;durP1;ratioP1;P1;durP2;ratioP2;P2;SDS_P1;SDS_P2;PMS_P1;PMS_P2;Temp;Humidity;BMP_temperature;BMP_pressure;BME280_temperature;BME280_humidity;BME280_pressure;Samples;Min_cycle;Max_cycle;Signal;HPM_P1;HPM_P2
2023/01/09 00:00:48;;;;;;;13.70;8.95;;;4.70;99.90;;;;;;5045435;28;20036;-32
2023/01/09 00:03:14;;;;;;;14.20;9.07;;;4.80;99.90;;;;;;5047078;28;20111;-29
2023/01/09 00:05:40;;;;;;;14.60;8.23;;;4.80;99.90;;;;;;5050657;28;20468;-34
2023/01/09 00:08:07;;;;;;;15.38;8.75;;;4.80;99.90;;;;;;5048805;28;20057;-29
2023/01/09 00:10:33;;;;;;;14.80;8.50;;;4.80;99.90;;;;;;5069698;28;20032;-28
2023/01/09 00:12:59;;;;;;;10.07;8.20;;;4.80;99.90;;;;;;5051144;28;20013;-32
2023/01/09 00:15:26;;;;;;;11.52;8.57;;;4.90;99.90;;;;;;5047994;28;20701;-31
2023/01/09 00:17:52;;;;;;;14.60;9.25;;;4.80;99.90;;;;;;5048342;28;20025;-31
2023/01/09 00:20:18;;;;;;;10.00;6.68;;;4.80;99.90;;;;;;5042049;28;20021;-30
2023/01/09 00:22:47;;;;;;;15.38;8.45;;;4.70;99.90;;;;;;5043994;28;20029;-31
2023/01/09 00:25:13;;;;;;;14.50;9.68;;;4.60;99.90;;;;;;5048431;28;20078;-30
2023/01/09 00:27:40;;;;;;;18.13;9.45;;;4.60;99.90;;;;;;5046345;28;20031;-29
2023/01/09 00:30:07;;;;;;;14.98;8.75;;;4.60;99.90;;;;;;5049014;28;20209;-31
2023/01/09 00:32:34;;;;;;;15.48;9.23;;;4.60;99.90;;;;;;5049104;28;20041;-30
2023/01/09 00:35:01;;;;;;;16.48;9.65;;;4.70;99.90;;;;;;5028787;28;20028;-32
2023/01/09 00:37:27;;;;;;;17.02;9.68;;;4.70;99.90;;;;;;5011508;28;20047;-32
2023/01/09 00:39:53;;;;;;;17.52;9.70;;;4.80;99.90;;;;;;5031412;28;20068;-33
2023/01/09 00:42:22;;;;;;;15.95;10.00;;;4.80;99.90;;;;;;5022173;28;20025;-33
2023/01/09 00:44:56;;;;;;;13.65;10.23;;;4.80;99.90;;;;;;5035986;28;20043;-33
2023/01/09 00:47:33;;;;;;;15.00;8.63;;;4.80;99.90;;;;;;5028057;28;20043;-34
2023/01/09 00:50:10;;;;;;;15.38;9.48;;;4.80;99.90;;;;;;5042843;28;20034;-35
2023/01/09 00:52:38;;;;;;;19.15;9.68;;;4.80;99.90;;;;;;5025526;28;20060;-32
2023/01/09 00:55:08;;;;;;;14.68;9.93;;;4.80;99.90;;;;;;5028153;28;20063;-33
2023/01/09 00:57:38;;;;;;;14.95;8.65;;;4.80;99.90;;;;;;5013259;28;20383;-32
2023/01/09 01:00:06;;;;;;;9.27;7.38;;;4.80;99.90;;;;;;5026468;28;20036;-33
2023/01/09 01:02:33;;;;;;;15.65;9.65;;;4.80;99.90;;;;;;5025231;28;20494;-33
2023/01/09 01:07:45;;;;;;;12.07;8.38;;;4.80;99.90;;;;;;5038923;28;20040;-30
2023/01/09 01:10:26;;;;;;;14.15;8.98;;;4.80;99.90;;;;;;5030445;28;20036;-33
2023/01/09 01:12:53;;;;;;;12.88;8.75;;;4.80;99.90;;;;;;5041993;28;20477;-31
2023/01/09 01:15:20;;;;;;;12.75;8.38;;;4.80;99.90;;;;;;5030715;28;20036;-32
2023/01/09 01:17:47;;;;;;;12.10;8.52;;;4.90;99.90;;;;;;5026061;28;20079;-33
2023/01/09 01:20:16;;;;;;;12.63;8.55;;;4.90;99.90;;;;;;5026818;28;20028;-31
2023/01/09 01:22:43;;;;;;;11.20;8.13;;;4.90;99.90;;;;;;5028006;28;20033;-31
2023/01/09 01:25:10;;;;;;;13.30;8.85;;;4.90;99.90;;;;;;5031029;28;20418;-33
2023/01/09 01:27:36;;;;;;;14.10;8.10;;;4.90;99.90;;;;;;5041129;28;20032;-32
2023/01/09 01:30:04;;;;;;;12.52;8.07;;;4.90;99.90;;;;;;5044932;28;20029;-32
2023/01/09 01:32:30;;;;;;;11.57;8.37;;;4.90;99.90;;;;;;5005701;28;20045;-32
2023/01/09 01:34:56;;;;;;;9.38;7.20;;;4.90;99.90;;;;;;5028724;28;20429;-30
2023/01/09 01:37:23;;;;;;;12.80;8.57;;;4.90;99.90;;;;;;5053726;28;20696;-33
2023/01/09 01:39:50;;;;;;;11.40;7.55;;;4.90;99.90;;;;;;5049696;28;20390;-33
2023/01/09 01:42:17;;;;;;;13.15;8.38;;;5.00;99.90;;;;;;5024869;28;20036;-31
2023/01/09 01:45:06;;;;;;;9.48;7.22;;;5.00;99.90;;;;;;5026184;28;20029;-34
2023/01/09 01:47:45;;;;;;;13.20;8.82;;;4.90;99.90;;;;;;5025349;28;20040;-33
2023/01/09 01:50:18;;;;;;;13.82;8.35;;;4.90;99.90;;;;;;5037854;28;20032;-32
2023/01/09 01:52:51;;;;;;;14.95;8.43;;;4.90;99.90;;;;;;5044624;28;20032;-33
2023/01/09 01:55:18;;;;;;;11.43;7.07;;;4.90;99.90;;;;;;5026498;28;20087;-33
2023/01/09 01:57:48;;;;;;;10.98;8.15;;;4.90;99.90;;;;;;5041304;28;20057;-34
2023/01/09 02:00:14;;;;;;;15.65;8.32;;;4.90;99.90;;;;;;5031061;28;20033;-32
2023/01/09 02:02:42;;;;;;;12.20;7.40;;;4.90;99.90;;;;;;5027301;28;20075;-33
2023/01/09 02:05:09;;;;;;;10.02;7.38;;;4.90;99.90;;;;;;5028754;28;20043;-31
2023/01/09 02:07:35;;;;;;;9.57;7.63;;;4.90;99.90;;;;;;5021770;28;20111;-34
2023/01/09 02:10:06;;;;;;;10.05;7.50;;;4.90;99.90;;;;;;5047634;28;20610;-33
2023/01/09 02:12:32;;;;;;;11.15;7.55;;;5.00;99.90;;;;;;5029631;28;20033;-31
2023/01/09 02:15:08;;;;;;;10.80;7.40;;;4.90;99.90;;;;;;5028843;28;20036;-32
2023/01/09 02:17:46;;;;;;;10.40;7.13;;;4.90;99.90;;;;;;5012528;28;20029;-33
2023/01/09 02:20:44;;;;;;;11.00;7.10;;;4.80;99.90;;;;;;5040687;28;20106;-30
2023/01/09 02:23:38;;;;;;;8.88;6.93;;;4.90;99.90;;;;;;5044251;28;20075;-33
2023/01/09 02:26:04;;;;;;;10.50;7.38;;;4.80;99.90;;;;;;5047103;28;20056;-30
2023/01/09 02:28:52;;;;;;;11.35;7.53;;;4.80;99.90;;;;;;5047046;28;20035;-33
2023/01/09 02:31:23;;;;;;;14.40;7.57;;;4.80;99.90;;;;;;5034419;28;20090;-35
2023/01/09 02:34:23;;;;;;;20.92;7.70;;;4.70;99.90;;;;;;5045082;28;20283;-32
2023/01/09 02:37:10;;;;;;;9.20;6.55;;;4.60;99.90;;;;;;5033250;28;20028;-30
2023/01/09 02:40:06;;;;;;;17.98;5.57;;;4.50;99.90;;;;;;5043014;28;20379;-32
2023/01/09 02:42:35;;;;;;;10.27;6.05;;;4.50;99.90;;;;;;5062290;28;20470;-33
2023/01/09 02:45:02;;;;;;;9.65;6.97;;;4.40;99.90;;;;;;5048161;28;20021;-33
2023/01/09 02:47:30;;;;;;;10.30;6.82;;;4.50;99.90;;;;;;5062641;28;20047;-33
2023/01/09 02:50:03;;;;;;;12.75;6.15;;;4.50;99.90;;;;;;5047687;28;20852;-30
2023/01/09 02:52:46;;;;;;;8.98;6.28;;;4.50;99.90;;;;;;5045084;28;20423;-29
2023/01/09 02:55:34;;;;;;;8.10;5.97;;;4.50;99.90;;;;;;5062854;28;20016;-32
2023/01/09 02:58:13;;;;;;;7.70;5.45;;;4.60;99.90;;;;;;5046813;28;20507;-32
2023/01/09 03:00:50;;;;;;;6.32;5.40;;;4.60;99.90;;;;;;5043777;28;20592;-34
2023/01/09 03:03:44;;;;;;;7.75;5.72;;;4.60;99.90;;;;;;5056810;28;20055;-33
2023/01/09 03:06:41;;;;;;;5.68;4.35;;;4.70;99.90;;;;;;5028914;28;20024;-31
2023/01/09 03:09:19;;;;;;;6.40;5.05;;;4.70;99.90;;;;;;5042493;28;20619;-35
2023/01/09 03:12:22;;;;;;;6.25;4.75;;;4.70;99.90;;;;;;5048087;28;20059;-32
2023/01/09 03:14:55;;;;;;;6.70;4.55;;;4.70;99.90;;;;;;4987049;28;20034;-29
2023/01/09 03:17:33;;;;;;;6.20;5.60;;;4.70;99.90;;;;;;5055920;28;20170;-36
2023/01/09 03:20:03;;;;;;;5.97;5.03;;;4.80;99.90;;;;;;5050495;28;20033;-33
2023/01/09 03:22:30;;;;;;;7.85;5.68;;;4.80;99.90;;;;;;5030425;28;20068;-34
2023/01/09 03:25:00;;;;;;;9.38;5.65;;;4.80;99.90;;;;;;5050758;28;20549;-34
2023/01/09 03:27:26;;;;;;;7.55;5.40;;;4.70;99.90;;;;;;5048719;28;20061;-32
2023/01/09 03:29:53;;;;;;;9.23;4.85;;;4.70;99.90;;;;;;5052142;28;20317;-31
2023/01/09 03:32:26;;;;;;;5.55;4.82;;;4.80;99.90;;;;;;5059961;28;20638;-36
2023/01/09 03:34:55;;;;;;;7.40;5.72;;;4.80;99.90;;;;;;5065113;28;20028;-34
2023/01/09 03:37:22;;;;;;;7.60;6.03;;;4.80;99.90;;;;;;5069030;28;20039;-31
2023/01/09 03:39:48;;;;;;;8.85;5.30;;;4.80;99.90;;;;;;5071336;28;20027;-32
2023/01/09 03:42:17;;;;;;;9.27;5.93;;;4.80;99.90;;;;;;5067746;28;20031;-34
2023/01/09 03:44:43;;;;;;;7.72;5.43;;;4.80;99.90;;;;;;5071213;28;20078;-30
2023/01/09 03:47:12;;;;;;;7.50;5.40;;;4.80;99.90;;;;;;5072240;28;20053;-33
2023/01/09 03:49:39;;;;;;;6.78;4.85;;;4.80;99.90;;;;;;5070655;28;20035;-31
2023/01/09 03:52:05;;;;;;;5.13;3.35;;;4.80;99.90;;;;;;5069177;28;20020;-30
2023/01/09 03:54:32;;;;;;;4.03;3.17;;;4.80;99.90;;;;;;5072168;28;20024;-32
2023/01/09 03:56:58;;;;;;;2.83;2.53;;;4.90;99.90;;;;;;5062882;28;20576;-32
2023/01/09 03:59:24;;;;;;;1.63;1.52;;;5.00;99.90;;;;;;5068665;28;20048;-29
2023/01/09 04:01:51;;;;;;;3.17;2.55;;;5.20;99.90;;;;;;5066020;28;20473;-30
2023/01/09 04:04:17;;;;;;;1.48;1.38;;;5.40;99.90;;;;;;5072007;28;20056;-28
2023/01/09 04:06:43;;;;;;;1.92;1.83;;;5.50;99.90;;;;;;5065160;28;20035;-33
2023/01/09 04:09:10;;;;;;;1.67;1.58;;;5.70;99.90;;;;;;5069431;28;20494;-34
2023/01/09 04:11:36;;;;;;;1.60;1.50;;;5.90;99.90;;;;;;5082100;28;20101;-32
2023/01/09 04:14:02;;;;;;;1.63;1.48;;;6.00;99.90;;;;;;5067232;28;20028;-32
2023/01/09 04:16:28;;;;;;;1.40;1.30;;;6.00;99.90;;;;;;5075693;28;20548;-33
2023/01/09 04:18:55;;;;;;;1.55;1.45;;;6.20;99.90;;;;;;5072175;28;20484;-33
2023/01/09 04:21:21;;;;;;;1.48;1.38;;;6.20;99.90;;;;;;5069587;28;20035;-33
2023/01/09 04:23:47;;;;;;;1.63;1.52;;;6.30;99.90;;;;;;5069422;28;20031;-31
2023/01/09 04:26:14;;;;;;;1.70;1.50;;;6.30;99.90;;;;;;5065454;28;20059;-33
2023/01/09 04:28:40;;;;;;;1.60;1.50;;;6.30;99.90;;;;;;5062035;28;20024;-29
2023/01/09 04:31:09;;;;;;;2.22;1.55;;;6.30;99.90;;;;;;5069075;28;20040;-33
2023/01/09 04:33:35;;;;;;;1.83;1.73;;;6.40;99.90;;;;;;5067191;28;20032;-35
2023/01/09 04:36:02;;;;;;;1.38;1.30;;;6.40;99.90;;;;;;5051410;28;20029;-33
2023/01/09 04:38:29;;;;;;;1.25;1.17;;;6.40;99.90;;;;;;5067652;28;20099;-33
2023/01/09 04:40:54;;;;;;;1.80;1.70;;;6.50;99.90;;;;;;5068522;28;20516;-31
2023/01/09 04:43:20;;;;;;;1.48;1.33;;;6.60;99.90;;;;;;5065511;28;20055;-30
2023/01/09 04:45:46;;;;;;;1.95;1.60;;;6.60;99.90;;;;;;5059272;28;20043;-35
2023/01/09 04:48:12;;;;;;;1.55;1.45;;;6.60;99.90;;;;;;5086420;28;20050;-30
2023/01/09 04:50:38;;;;;;;1.10;1.10;;;6.70;99.90;;;;;;5071242;28;20020;-29
2023/01/09 04:53:04;;;;;;;1.63;1.52;;;6.70;99.90;;;;;;5065970;28;20020;-32
2023/01/09 04:55:30;;;;;;;2.03;1.60;;;6.80;99.90;;;;;;5068075;28;20043;-32
2023/01/09 04:57:56;;;;;;;1.48;1.38;;;6.70;99.90;;;;;;5082400;28;20028;-32
2023/01/09 05:00:25;;;;;;;2.17;2.08;;;6.70;99.90;;;;;;5066846;28;20512;-31
2023/01/09 05:02:51;;;;;;;1.85;1.60;;;6.80;99.90;;;;;;5049970;28;20096;-31
2023/01/09 05:05:17;;;;;;;1.70;1.60;;;6.70;99.90;;;;;;5090273;28;20032;-34
2023/01/09 05:07:43;;;;;;;1.35;1.20;;;6.80;99.90;;;;;;5080676;28;20492;-31
2023/01/09 05:10:11;;;;;;;1.45;1.33;;;6.70;99.90;;;;;;5089809;28;20019;-33
2023/01/09 05:12:38;;;;;;;2.95;1.23;;;6.70;99.90;;;;;;5080291;28;20024;-33
2023/01/09 05:15:05;;;;;;;1.52;1.42;;;6.70;99.90;;;;;;5087359;28;20024;-31
2023/01/09 05:17:31;;;;;;;1.25;1.25;;;6.70;99.90;;;;;;5082468;28;20055;-33
2023/01/09 05:19:56;;;;;;;1.33;1.20;;;6.70;99.90;;;;;;5070854;28;20027;-32
2023/01/09 05:22:22;;;;;;;2.10;1.27;;;6.70;99.90;;;;;;5081438;28;20511;-34
2023/01/09 05:24:48;;;;;;;1.25;1.15;;;6.60;99.90;;;;;;5076579;28;20035;-33
2023/01/09 05:27:14;;;;;;;0.95;0.95;;;6.60;99.90;;;;;;5082720;28;20032;-32
2023/01/09 05:29:39;;;;;;;1.48;1.35;;;6.60;99.90;;;;;;5083089;28;20020;-33
2023/01/09 05:32:05;;;;;;;1.27;1.20;;;6.60;99.90;;;;;;5082357;28;20086;-36
2023/01/09 05:34:31;;;;;;;1.25;1.17;;;6.60;99.90;;;;;;5085725;28;20144;-33
2023/01/09 05:36:57;;;;;;;0.98;0.98;;;6.50;99.90;;;;;;5075317;28;20036;-33
2023/01/09 05:39:22;;;;;;;0.77;0.70;;;6.50;99.90;;;;;;5068890;28;20035;-30
2023/01/09 05:41:48;;;;;;;1.15;1.05;;;6.50;99.90;;;;;;5068803;28;20084;-33
2023/01/09 05:44:20;;;;;;;1.27;0.82;;;6.50;99.90;;;;;;5080511;28;20070;-29
2023/01/09 05:46:46;;;;;;;0.60;0.60;;;6.50;99.90;;;;;;5082758;28;20040;-33
2023/01/09 05:49:13;;;;;;;0.85;0.85;;;6.50;99.90;;;;;;5080889;28;20074;-33
2023/01/09 05:51:39;;;;;;;0.90;0.90;;;6.40;99.90;;;;;;5081246;28;20028;-33
2023/01/09 05:54:07;;;;;;;0.50;0.50;;;6.40;99.90;;;;;;5080823;28;20047;-34
2023/01/09 05:56:33;;;;;;;0.43;0.43;;;6.40;99.90;;;;;;5085310;28;20107;-35
2023/01/09 05:58:59;;;;;;;0.30;0.30;;;6.30;99.90;;;;;;5081797;28;20634;-33
2023/01/09 06:01:25;;;;;;;0.50;0.50;;;6.30;99.90;;;;;;5085458;28;20424;-34
2023/01/09 06:03:51;;;;;;;0.35;0.35;;;6.30;99.90;;;;;;5065542;28;20059;-33
2023/01/09 06:06:17;;;;;;;0.70;0.70;;;6.30;99.90;;;;;;5087873;28;20093;-32
2023/01/09 06:08:42;;;;;;;0.60;0.60;;;6.30;99.90;;;;;;5082478;28;20012;-34
2023/01/09 06:11:08;;;;;;;0.50;0.50;;;6.20;99.90;;;;;;5083946;28;20021;-33
2023/01/09 06:13:34;;;;;;;1.40;0.65;;;6.20;99.90;;;;;;5083218;28;20034;-31
2023/01/09 06:16:00;;;;;;;0.50;0.50;;;6.10;99.90;;;;;;5066304;28;20024;-33
2023/01/09 06:18:26;;;;;;;0.35;0.35;;;5.90;99.90;;;;;;5082546;28;20058;-35
2023/01/09 06:20:51;;;;;;;0.88;0.55;;;5.80;99.90;;;;;;5068221;28;20032;-30
2023/01/09 06:23:17;;;;;;;0.50;0.50;;;5.70;99.90;;;;;;5083707;28;20035;-34
2023/01/09 06:25:43;;;;;;;0.50;0.50;;;5.60;99.90;;;;;;5079696;28;20028;-31
2023/01/09 06:28:09;;;;;;;1.65;0.50;;;5.50;99.90;;;;;;5067628;28;20393;-34
2023/01/09 06:30:35;;;;;;;0.40;0.40;;;5.40;99.90;;;;;;5083128;28;20017;-33
2023/01/09 06:33:01;;;;;;;0.50;0.50;;;5.40;99.90;;;;;;5063782;28;20110;-30
2023/01/09 06:35:27;;;;;;;0.60;0.60;;;5.40;99.90;;;;;;5067653;28;20512;-35
2023/01/09 06:37:53;;;;;;;0.40;0.40;;;5.50;99.90;;;;;;5057779;28;21344;-29
2023/01/09 06:40:20;;;;;;;2.45;0.63;;;5.50;99.90;;;;;;5067014;28;20034;-36
2023/01/09 06:42:47;;;;;;;0.40;0.40;;;5.50;99.90;;;;;;5047137;28;20826;-32
2023/01/09 06:45:14;;;;;;;2.85;0.50;;;5.40;99.90;;;;;;5044796;28;21463;-33
2023/01/09 06:47:40;;;;;;;0.50;0.50;;;5.40;99.90;;;;;;5035125;28;20029;-31
2023/01/09 06:50:10;;;;;;;0.40;0.40;;;5.40;99.90;;;;;;5050985;28;20576;-36
2023/01/09 06:52:36;;;;;;;0.52;0.52;;;5.40;99.90;;;;;;5051459;28;20183;-33
2023/01/09 06:55:03;;;;;;;0.77;0.77;;;5.40;99.90;;;;;;5046601;28;20054;-32
2023/01/09 06:57:29;;;;;;;0.55;0.55;;;5.40;99.90;;;;;;5049072;28;20392;-33
2023/01/09 06:59:58;;;;;;;0.47;0.47;;;5.30;99.90;;;;;;5070414;28;20042;-33
2023/01/09 07:02:30;;;;;;;0.38;0.38;;;5.30;99.90;;;;;;5067450;28;21548;-33
2023/01/09 07:04:59;;;;;;;0.50;0.50;;;5.30;99.90;;;;;;5056997;28;20024;-35
2023/01/09 07:07:28;;;;;;;0.50;0.50;;;5.30;99.90;;;;;;5053436;28;20036;-35
2023/01/09 07:09:54;;;;;;;0.47;0.47;;;5.30;99.90;;;;;;5062795;28;20036;-33
2023/01/09 07:12:23;;;;;;;0.40;0.40;;;5.30;99.90;;;;;;5046651;28;20028;-35
2023/01/09 07:14:49;;;;;;;0.73;0.60;;;5.30;99.90;;;;;;5048707;28;20024;-31
2023/01/09 07:17:15;;;;;;;0.40;0.40;;;5.30;99.90;;;;;;5049523;28;20043;-34
2023/01/09 07:19:41;;;;;;;0.63;0.50;;;5.30;99.90;;;;;;5055411;28;20657;-33
2023/01/09 07:22:06;;;;;;;0.85;0.70;;;5.30;99.90;;;;;;5071826;28;20042;-36
2023/01/09 07:24:32;;;;;;;1.33;0.73;;;5.30;99.90;;;;;;5072152;28;20118;-31
2023/01/09 07:26:58;;;;;;;0.40;0.40;;;5.30;99.90;;;;;;5053427;28;20575;-31
2023/01/09 07:29:25;;;;;;;0.70;0.70;;;5.20;99.90;;;;;;5052167;28;20477;-35
2023/01/09 07:31:51;;;;;;;1.70;1.17;;;5.20;99.90;;;;;;5064322;28;20043;-31
2023/01/09 07:34:18;;;;;;;0.68;0.68;;;5.20;99.90;;;;;;5068926;28;20035;-34
2023/01/09 07:36:45;;;;;;;0.95;0.63;;;5.20;99.90;;;;;;5086475;28;20036;-31
2023/01/09 07:39:12;;;;;;;0.40;0.40;;;5.10;99.90;;;;;;5088014;28;20027;-35
2023/01/09 07:41:39;;;;;;;1.10;0.60;;;5.10;99.90;;;;;;5082053;28;20028;-31
2023/01/09 07:44:06;;;;;;;0.50;0.50;;;5.10;99.90;;;;;;5041002;28;20059;-32
2023/01/09 07:46:32;;;;;;;0.60;0.60;;;5.00;99.90;;;;;;5077486;28;20051;-30
2023/01/09 07:48:58;;;;;;;0.77;0.77;;;4.90;99.90;;;;;;5053940;28;20367;-32
2023/01/09 07:51:25;;;;;;;0.93;0.85;;;4.90;99.90;;;;;;5069802;28;20051;-33
2023/01/09 07:53:51;;;;;;;0.90;0.90;;;4.90;99.90;;;;;;5064891;28;20465;-30
2023/01/09 07:56:20;;;;;;;0.50;0.50;;;4.90;99.90;;;;;;5066348;28;20653;-32
2023/01/09 07:58:46;;;;;;;0.73;0.43;;;4.80;99.90;;;;;;5084657;28;20396;-32
2023/01/09 08:01:12;;;;;;;1.05;0.95;;;4.70;99.90;;;;;;5070614;28;20036;-31
2023/01/09 08:03:38;;;;;;;0.80;0.80;;;4.70;99.90;;;;;;5083634;28;20036;-33
2023/01/09 08:06:05;;;;;;;0.65;0.65;;;4.70;99.90;;;;;;5087540;28;20138;-31
2023/01/09 08:08:31;;;;;;;0.57;0.57;;;4.70;99.90;;;;;;5075737;28;20027;-32
2023/01/09 08:10:57;;;;;;;0.80;0.80;;;4.70;99.90;;;;;;5067278;28;20387;-30
2023/01/09 08:13:23;;;;;;;0.80;0.80;;;4.70;99.90;;;;;;5066771;28;20047;-35
2023/01/09 08:15:50;;;;;;;0.50;0.50;;;4.70;99.90;;;;;;5088528;28;20016;-29
2023/01/09 08:18:16;;;;;;;0.63;0.63;;;4.70;99.90;;;;;;5064027;28;20021;-32
2023/01/09 08:20:42;;;;;;;2.75;1.10;;;4.60;99.90;;;;;;5067832;28;20469;-32
2023/01/09 08:23:08;;;;;;;0.60;0.60;;;4.60;99.90;;;;;;5071788;28;20100;-35
2023/01/09 08:25:35;;;;;;;0.50;0.50;;;4.60;99.90;;;;;;5066374;28;20031;-33
2023/01/09 08:28:01;;;;;;;0.80;0.57;;;4.60;99.90;;;;;;5065239;28;20036;-31
2023/01/09 08:30:27;;;;;;;0.57;0.57;;;4.60;99.90;;;;;;5093122;28;20400;-31
2023/01/09 08:32:54;;;;;;;0.50;0.50;;;4.60;99.90;;;;;;5064063;28;20044;-30
2023/01/09 08:35:20;;;;;;;0.70;0.70;;;4.60;99.90;;;;;;5071293;28;20050;-29
2023/01/09 08:37:47;;;;;;;0.60;0.60;;;4.70;99.90;;;;;;5089432;28;20040;-31
2023/01/09 08:40:15;;;;;;;0.50;0.50;;;4.60;99.90;;;;;;5071761;28;20024;-33
2023/01/09 08:48:10;;;;;;;0.60;0.60;;;4.80;99.90;;;;;;5074052;28;20047;-32
2023/01/09 08:50:37;;;;;;;0.82;0.82;;;4.80;99.90;;;;;;5070602;28;20024;-29
2023/01/09 08:53:03;;;;;;;1.02;0.70;;;4.90;99.90;;;;;;5088739;28;20107;-32
2023/01/09 08:55:29;;;;;;;0.45;0.45;;;4.90;99.90;;;;;;5067167;28;20028;-35
2023/01/09 08:57:55;;;;;;;1.67;0.80;;;5.00;99.90;;;;;;5067121;28;20055;-33
2023/01/09 09:00:23;;;;;;;0.50;0.50;;;4.90;99.90;;;;;;5064712;28;20031;-31
2023/01/09 09:02:55;;;;;;;0.60;0.60;;;5.00;99.90;;;;;;5066927;28;20504;-32
2023/01/09 09:05:22;;;;;;;0.65;0.65;;;5.00;99.90;;;;;;5068108;28;20058;-29
2023/01/09 09:07:54;;;;;;;0.60;0.60;;;5.00;99.90;;;;;;5069591;28;20028;-34
2023/01/09 09:10:22;;;;;;;0.80;0.73;;;5.00;99.90;;;;;;5072429;28;20529;-30
2023/01/09 09:12:52;;;;;;;1.30;1.00;;;5.00;99.90;;;;;;5036016;28;20035;-32
2023/01/09 09:15:25;;;;;;;0.70;0.70;;;5.00;99.90;;;;;;5074360;28;20898;-34
2023/01/09 09:18:00;;;;;;;1.65;1.40;;;5.10;99.90;;;;;;5082719;28;20094;-31
2023/01/09 09:20:31;;;;;;;0.63;0.63;;;5.10;99.90;;;;;;5069056;28;20400;-31
2023/01/09 09:23:00;;;;;;;0.75;0.75;;;5.10;99.90;;;;;;5055776;28;20506;-34
2023/01/09 09:25:26;;;;;;;0.82;0.73;;;5.10;99.90;;;;;;5067240;28;20046;-34
2023/01/09 09:27:56;;;;;;;3.47;1.00;;;5.10;99.90;;;;;;5066395;28;20038;-30
2023/01/09 09:30:23;;;;;;;0.95;0.80;;;5.10;99.90;;;;;;5068971;28;20035;-30
2023/01/09 09:32:52;;;;;;;1.45;0.90;;;5.20;99.90;;;;;;5069762;28;20083;-32
2023/01/09 09:35:27;;;;;;;2.78;0.60;;;5.20;99.90;;;;;;5046343;28;20040;-32
2023/01/09 09:37:59;;;;;;;0.60;0.60;;;5.20;99.90;;;;;;5047012;28;20040;-31
2023/01/09 09:40:39;;;;;;;2.63;0.93;;;5.20;99.90;;;;;;5032996;28;20032;-30
2023/01/09 09:46:26;;;;;;;0.60;0.60;;;5.20;99.90;;;;;;5063572;28;20071;-30
2023/01/09 09:49:01;;;;;;;0.70;0.70;;;5.20;99.90;;;;;;5067523;28;20024;-31
2023/01/09 09:51:35;;;;;;;0.70;0.70;;;5.20;99.90;;;;;;5031496;28;20406;-33
2023/01/09 09:54:08;;;;;;;1.70;1.13;;;5.20;99.90;;;;;;5047055;28;20020;-29
2023/01/09 09:56:57;;;;;;;2.13;0.68;;;5.30;99.90;;;;;;5049361;28;20039;-30
2023/01/09 09:59:36;;;;;;;0.57;0.57;;;5.30;99.90;;;;;;5064100;28;20058;-32
2023/01/09 10:02:08;;;;;;;3.20;0.90;;;5.30;99.90;;;;;;5044531;28;20033;-31
2023/01/09 10:04:42;;;;;;;2.05;0.93;;;5.30;99.90;;;;;;5046926;28;20039;-31
2023/01/09 10:07:19;;;;;;;2.33;0.70;;;5.30;99.90;;;;;;5046294;28;20032;-32
2023/01/09 10:09:59;;;;;;;1.63;0.70;;;5.30;99.90;;;;;;5045040;28;20321;-29
2023/01/09 10:12:30;;;;;;;0.47;0.47;;;5.30;99.90;;;;;;5066824;28;20047;-32
2023/01/09 10:15:05;;;;;;;2.40;0.80;;;5.40;99.90;;;;;;5035968;28;20027;-31
2023/01/09 10:17:37;;;;;;;0.60;0.60;;;5.40;99.90;;;;;;5048384;28;20059;-33
2023/01/09 10:20:22;;;;;;;0.63;0.63;;;5.40;99.90;;;;;;5060704;28;20528;-32
2023/01/09 10:23:13;;;;;;;2.83;0.90;;;5.40;99.90;;;;;;5073026;28;20551;-30
2023/01/09 10:26:08;;;;;;;0.52;0.52;;;5.40;99.90;;;;;;5035987;28;20040;-32
2023/01/09 10:28:54;;;;;;;0.40;0.40;;;5.50;99.90;;;;;;5007658;28;20056;-31
2023/01/09 10:31:48;;;;;;;1.15;0.70;;;5.50;99.90;;;;;;5056432;28;20037;-33
2023/01/09 10:34:47;;;;;;;0.82;0.75;;;5.50;99.90;;;;;;5058918;28;20059;-31
2023/01/09 10:37:32;;;;;;;1.73;0.88;;;5.60;99.90;;;;;;5058122;28;20112;-31
2023/01/09 10:40:30;;;;;;;0.77;0.77;;;5.60;99.90;;;;;;5040251;28;20078;-30
2023/01/09 10:43:15;;;;;;;0.50;0.50;;;5.70;99.90;;;;;;5040953;28;20036;-34
2023/01/09 10:45:53;;;;;;;0.95;0.90;;;5.80;99.90;;;;;;5058485;28;20490;-33
2023/01/09 10:48:37;;;;;;;1.25;0.73;;;5.80;99.90;;;;;;5033235;28;20217;-31
2023/01/09 10:51:33;;;;;;;0.60;0.60;;;5.90;99.90;;;;;;5046762;28;20874;-32
2023/01/09 10:53:59;;;;;;;0.57;0.57;;;5.90;99.90;;;;;;5041614;28;20055;-29
2023/01/09 10:56:29;;;;;;;0.57;0.57;;;5.90;99.90;;;;;;5056935;28;20038;-31
2023/01/09 10:58:56;;;;;;;1.55;0.73;;;5.90;99.90;;;;;;5043002;28;20033;-30
2023/01/09 11:01:37;;;;;;;0.50;0.50;;;5.90;99.90;;;;;;5052164;28;20086;-31
2023/01/09 11:04:26;;;;;;;0.70;0.70;;;5.90;99.90;;;;;;5053655;28;20032;-32
2023/01/09 11:07:19;;;;;;;2.08;0.82;;;5.90;99.90;;;;;;5063119;28;20058;-32
2023/01/09 11:10:10;;;;;;;0.45;0.45;;;6.00;99.90;;;;;;5072770;28;20159;-32
2023/01/09 11:12:38;;;;;;;0.60;0.60;;;6.00;99.90;;;;;;5047332;28;20039;-34
2023/01/09 11:15:30;;;;;;;0.98;0.60;;;6.00;99.90;;;;;;5054503;28;20446;-32
2023/01/09 11:18:19;;;;;;;0.50;0.50;;;6.00;99.90;;;;;;5071576;28;20035;-31
2023/01/09 11:20:46;;;;;;;0.65;0.65;;;6.00;99.90;;;;;;5058171;28;20481;-32
2023/01/09 11:23:30;;;;;;;0.50;0.50;;;6.00;99.90;;;;;;5052568;28;20028;-32
2023/01/09 11:26:03;;;;;;;0.98;0.80;;;6.10;99.90;;;;;;5055051;28;20029;-30
2023/01/09 11:28:30;;;;;;;0.43;0.43;;;6.10;99.90;;;;;;5052544;28;20032;-30
2023/01/09 11:31:04;;;;;;;0.70;0.70;;;6.10;99.90;;;;;;5051414;28;20024;-34
2023/01/09 11:33:36;;;;;;;0.95;0.90;;;6.20;99.90;;;;;;5042554;28;20060;-30
2023/01/09 11:36:14;;;;;;;0.60;0.60;;;6.20;99.90;;;;;;5047877;28;20402;-34
2023/01/09 11:38:48;;;;;;;;;;;6.20;99.90;;;;;;5064834;28;20048;-29
2023/01/09 11:41:26;;;;;;;1.83;0.50;;;6.20;99.90;;;;;;5045055;28;19908;-33
2023/01/09 11:43:55;;;;;;;2.38;0.82;;;6.30;99.90;;;;;;5053145;28;20024;-31
2023/01/09 11:46:43;;;;;;;0.85;0.60;;;6.40;99.90;;;;;;5050759;28;20033;-33
2023/01/09 11:49:12;;;;;;;2.00;0.60;;;6.40;99.90;;;;;;5068915;28;20021;-30
2023/01/09 11:51:39;;;;;;;2.03;0.77;;;6.40;99.90;;;;;;5064161;28;20017;-31
2023/01/09 11:54:30;;;;;;;1.10;0.80;;;6.50;99.90;;;;;;5052820;28;20409;-29
2023/01/09 11:56:59;;;;;;;1.20;0.80;;;6.60;99.90;;;;;;5048332;28;20078;-32
2023/01/09 11:59:28;;;;;;;0.60;0.60;;;6.60;99.90;;;;;;5072606;28;20057;-29
2023/01/09 12:02:03;;;;;;;0.63;0.50;;;6.60;99.90;;;;;;5030992;28;20033;-30
2023/01/09 12:04:36;;;;;;;3.75;1.00;;;6.60;99.90;;;;;;5065094;28;20025;-33
2023/01/09 12:07:34;;;;;;;1.10;1.00;;;6.60;99.90;;;;;;5065304;28;20031;-34
2023/01/09 12:10:15;;;;;;;2.40;0.70;;;6.60;99.90;;;;;;5051380;28;20024;-30
2023/01/09 12:13:19;;;;;;;0.90;0.90;;;6.60;99.90;;;;;;5049077;28;20044;-32
2023/01/09 12:16:31;;;;;;;3.60;1.02;;;6.60;99.90;;;;;;5050452;28;20029;-31
2023/01/09 12:19:06;;;;;;;1.45;0.70;;;6.60;99.90;;;;;;5031896;28;20486;-31
2023/01/09 12:21:35;;;;;;;1.23;0.65;;;6.70;99.90;;;;;;5067438;28;20025;-31
2023/01/09 12:24:06;;;;;;;0.65;0.65;;;6.70;99.90;;;;;;5049648;28;20028;-29
2023/01/09 12:26:52;;;;;;;0.90;0.52;;;6.80;99.90;;;;;;5065556;28;20095;-28
2023/01/09 12:29:21;;;;;;;2.72;0.80;;;6.80;99.90;;;;;;5049471;28;20082;-30
2023/01/09 12:31:58;;;;;;;1.85;0.73;;;6.80;99.90;;;;;;5035736;28;20406;-30
2023/01/09 12:34:42;;;;;;;1.48;0.65;;;6.80;99.90;;;;;;5063605;28;20530;-31
2023/01/09 12:37:16;;;;;;;0.55;0.50;;;6.70;99.90;;;;;;5065861;28;20033;-31
2023/01/09 12:39:48;;;;;;;0.60;0.60;;;6.70;99.90;;;;;;5061520;28;20045;-34
2023/01/09 12:42:35;;;;;;;0.45;0.45;;;6.70;99.90;;;;;;5065788;28;20035;-31
2023/01/09 12:45:30;;;;;;;0.73;0.60;;;6.70;99.90;;;;;;5061588;28;20029;-30
2023/01/09 12:48:19;;;;;;;1.75;0.65;;;6.80;99.90;;;;;;5066537;28;20101;-31
2023/01/09 12:51:15;;;;;;;0.50;0.50;;;6.70;99.90;;;;;;5052786;28;20033;-31
2023/01/09 12:53:54;;;;;;;2.13;0.80;;;6.70;99.90;;;;;;5064009;28;20029;-34
2023/01/09 12:56:27;;;;;;;2.03;0.90;;;6.70;99.90;;;;;;5060363;28;20032;-31
2023/01/09 12:58:58;;;;;;;0.45;0.45;;;6.80;99.90;;;;;;5067880;28;20143;-29
2023/01/09 13:01:30;;;;;;;0.55;0.55;;;6.80;99.90;;;;;;5061356;28;20028;-33
2023/01/09 13:04:26;;;;;;;1.35;0.82;;;6.80;99.90;;;;;;5061208;28;20416;-31
2023/01/09 13:06:56;;;;;;;3.05;0.70;;;6.80;99.90;;;;;;5064990;28;20023;-29
2023/01/09 13:09:45;;;;;;;0.55;0.55;;;6.80;99.90;;;;;;5047851;28;20033;-34
2023/01/09 13:12:14;;;;;;;0.40;0.40;;;6.80;99.90;;;;;;5064522;28;20493;-30
2023/01/09 13:14:46;;;;;;;;;;;6.80;99.90;;;;;;5063836;28;20044;-30
2023/01/09 13:17:37;;;;;;;0.75;0.57;;;6.80;99.90;;;;;;5067536;28;19919;-30
2023/01/09 13:20:23;;;;;;;1.50;0.82;;;6.90;99.90;;;;;;5055403;28;20447;-35
2023/01/09 13:22:51;;;;;;;3.15;1.00;;;6.90;99.90;;;;;;5065848;28;20027;-32
2023/01/09 13:25:29;;;;;;;0.30;0.30;;;6.90;99.90;;;;;;5057071;28;20036;-32
2023/01/09 13:27:59;;;;;;;0.80;0.77;;;6.90;99.90;;;;;;5067564;28;20032;-32
2023/01/09 13:30:53;;;;;;;2.38;0.90;;;7.00;99.90;;;;;;5063422;28;20057;-35